To NAV CANADA Home Page Login to a new session Search on AWWS site Disclaimer Vers la page française équivalente Tips FAQ What's new on the site To the Forecasts and Observations / NOTAM section To "File a Flight Plan" website Publications and other links Update of the User's profile FIC Telephone Numbers My Weather Data Folder Route Weather Data Regional Weather Data Local Weather Data To the Forecasts and Observations / NOTAM section
Request Generated 02/01/2023 at 06:30:13 UTC . Weather information available at that time is displayed.

METAR/TAF

KITCHENER/WATERLOO/ON    (show WxCam)

METAR CYKF 010600Z AUTO 24008KT 9SM -SN OVC031 M13/M17 A3019 RMK SLP249=
METAR CYKF 010500Z AUTO 23004KT 9SM -SN BKN027 M14/M18 A3021 RMK SLP254=
SPECI CYKF 010449Z AUTO 21004KT 9SM -SN BKN027 M14/M18 A3021 RMK SLP257=
METAR CYKF 010400Z AUTO 25005KT 9SM SCT025 M13/M17 A3022 RMK SLP259=

TAF CYKF 010140Z 0102/0114 VRB03KT P6SM BKN025 OVC150
FM010600 26008KT P6SM FEW008 BKN030 TEMPO 0106/0114 BKN020
BECMG 0112/0114 24012KT
RMK FCST BASED ON AUTO OBS. NXT FCST BY 010800Z=

LONDON/ON    

METAR CYXU 010600Z 23004KT 15SM BKN030 M13/M16 A3023 RMK SC7 SLP260=
METAR CYXU 010500Z 24007KT 15SM FEW030 M13/M17 A3024 RMK SC2 SLP263=
METAR CYXU 010400Z CCA 23005KT 15SM FEW028 SCT110 M13/M17 A3025 RMK SC2AC1 SLP267=
METAR CYXU 010400Z 23005KT 15SM FEW038 SCT110 M13/M17 A3025 RMK SC2AC1 SLP267=

TAF CYXU 010540Z 0106/0206 24007KT P6SM SCT030 TEMPO 0106/0118
BKN030
BECMG 0112/0114 25012KT
FM011800 23010G20KT P6SM SCT020 BKN030
FM020000 23010KT P6SM FEW030 SCT140
RMK NXT FCST BY 011200Z=

HAMILTON/ON    

METAR CYHM 010600Z 23004KT 15SM SCT250 M14/M17 A3023 RMK CI3 SLP257=
METAR CYHM 010500Z 24005KT 15SM FEW023 SCT250 M13/M16 A3024 RMK SC1CI2 SLP260=
METAR CYHM 010400Z 29009KT 15SM BKN024 BKN130 M11/M15 A3025 RMK SC5AC1 SLP261=

TAF CYHM 010540Z 0106/0206 24005KT P6SM FEW020 SCT230 TEMPO
0106/0112 BKN020
BECMG 0114/0116 26012G22KT
FM011800 25015G25KT P6SM SCT020 BKN030
FM020000 23012KT P6SM FEW030 SCT150
RMK NXT FCST BY 011200Z

TORONTO/LESTER B. PEARSON INTL/ON    

METAR CYYZ 010600Z 26006KT 15SM SKC M14/M18 A3023 RMK SLP253=
METAR CYYZ 010500Z 28006KT 15SM SKC M12/M16 A3025 RMK SLP259=
METAR CYYZ 010400Z 29007KT 15SM FEW120 M11/M15 A3026 RMK AC1 AC TR SLP261=

TAF CYYZ 010540Z 0106/0212 28006KT P6SM FEW030 TEMPO 0106/0112
BKN030
BECMG 0110/0112 22012KT
FM011800 25012G22KT P6SM BKN030 TEMPO 0118/0203 SCT030
BECMG 0122/0124 23012KT
FM020300 24012KT P6SM SCT025 BKN100
FM020600 23010KT P6SM FEW030 SCT100
RMK NXT FCST BY 010900Z

TORONTO/BILLY BISHOP TORONTO CITY AIRPORT/ON    (show WxCam)

METAR CYTZ 010600Z AUTO 30013KT 9SM CLR M09/M15 A3026 RMK SLP255=
METAR CYTZ 010500Z AUTO 31014KT 9SM CLR M09/M14 A3028 RMK SLP261=
METAR CYTZ 010400Z AUTO 29013KT 9SM CLR M08/M14 A3028 RMK SLP261=

TAF CYTZ 010140Z 0102/0202 31012KT P6SM SCT130
FM010900 29012KT P6SM SCT030 TEMPO 0109/0118 BKN030
BECMG 0112/0114 27015KT
FM011800 26012G22KT P6SM FEW020 BKN030
BECMG 0122/0124 28015KT
RMK FCST BASED ON AUTO OBS. NXT FCST BY 010800Z

WIARTON/ON    

METAR CYVV 010600Z 19009KT 6SM -SN OVC026 M10/M13 A3014 RMK SC8 SLP224=
METAR CYVV 010500Z 18011KT 6SM -SN OVC026 M10/M13 A3015 RMK SC8 SLP229=
METAR CYVV 010400Z 19012KT 8SM -SN OVC024 M10/M14 A3017 RMK SC8 SLP235=

*** REMARK        : Forecast period has ended; this was the last TAF issued
*** REMARQUE : La période de prévision est échue; ceci était le dernier TAF qui a été émis
TAF CYVV 311940Z 3120/3124 19008KT P6SM -SN BKN030 TEMPO 3120/3124
1 1/2SM -SHSN BKN020
RMK NXT FCST BY 011200Z
Your time UTC time
Weather data provided by Environment Canada and NAV CANADA